createdAt,value
2023-02-01T00:02:57.206Z,5.63
2023-02-01T00:07:59.081Z,5.78
2023-02-01T00:13:00.893Z,5.32
2023-02-01T00:18:02.736Z,4.78
2023-02-01T00:23:04.519Z,6.05
2023-02-01T00:28:06.321Z,5.40
2023-02-01T00:33:08.189Z,5.25
2023-02-01T00:38:09.961Z,4.85
2023-02-01T00:43:12.019Z,5.30
2023-02-01T00:48:14.016Z,5.03
2023-02-01T00:53:15.782Z,4.68
2023-02-01T00:58:17.653Z,4.57
2023-02-01T01:03:19.510Z,4.70
2023-02-01T01:08:21.305Z,4.30
2023-02-01T01:13:23.301Z,5.38
2023-02-01T01:18:25.181Z,5.30
2023-02-01T01:23:28.026Z,5.10
2023-02-01T01:28:29.826Z,4.63
2023-02-01T01:33:31.645Z,5.32
2023-02-01T01:38:33.518Z,5.10
2023-02-01T01:43:47.522Z,5.70
2023-02-01T01:49:03.912Z,4.95
2023-02-01T01:54:30.498Z,4.57
2023-02-01T01:59:36.037Z,5.20
2023-02-01T02:04:38.423Z,4.80
2023-02-01T02:09:45.352Z,5.05
2023-02-01T02:14:50.346Z,5.07
2023-02-01T02:20:12.823Z,4.45
2023-02-01T02:25:39.016Z,5.75
2023-02-01T02:31:08.536Z,5.10
2023-02-01T02:36:13.337Z,4.72
2023-02-01T02:41:46.203Z,4.90
2023-02-01T02:47:09.984Z,5.47
2023-02-01T02:52:39.811Z,4.45
2023-02-01T02:58:03.592Z,4.57
2023-02-01T03:03:24.982Z,5.05
2023-02-01T03:08:29.436Z,4.30
2023-02-01T03:13:37.282Z,4.88
2023-02-01T03:19:01.222Z,4.57
2023-02-01T03:24:09.629Z,4.00
2023-02-01T03:29:20.701Z,5.10
2023-02-01T03:34:23.008Z,4.75
2023-02-01T03:39:37.318Z,4.63
2023-02-01T03:44:47.070Z,5.15
2023-02-01T03:49:55.288Z,4.60
2023-02-01T03:54:58.745Z,4.90
2023-02-01T04:00:17.435Z,4.28
2023-02-01T04:05:21.282Z,5.03
2023-02-01T04:10:38.694Z,4.35
2023-02-01T04:15:40.966Z,5.28
2023-02-01T04:20:44.037Z,4.25
2023-02-01T04:25:46.028Z,5.20
2023-02-01T04:30:47.912Z,4.70
2023-02-01T04:35:49.742Z,4.45
2023-02-01T04:40:51.728Z,4.40
2023-02-01T04:45:54.916Z,4.88
2023-02-01T04:50:56.985Z,5.38
2023-02-01T04:55:58.774Z,5.47
2023-02-01T05:01:05.481Z,4.82
2023-02-01T05:06:07.393Z,5.30
2023-02-01T05:11:29.327Z,5.78
2023-02-01T05:16:31.271Z,5.13
2023-02-01T05:21:33.099Z,5.18
2023-02-01T05:26:34.944Z,5.60
2023-02-01T05:31:37.341Z,5.50
2023-02-01T05:36:39.207Z,5.38
2023-02-01T05:41:41.042Z,4.63
2023-02-01T05:46:42.879Z,4.45
2023-02-01T05:51:44.662Z,4.55
2023-02-01T05:56:46.442Z,4.88
2023-02-01T06:01:48.229Z,4.30
2023-02-01T06:06:51.449Z,4.20
2023-02-01T06:11:53.220Z,4.57
2023-02-01T06:16:56.120Z,4.80
2023-02-01T06:21:57.906Z,5.05
2023-02-01T06:26:59.671Z,4.97
2023-02-01T06:32:01.549Z,5.75
2023-02-01T06:37:03.372Z,5.05
2023-02-01T06:42:05.218Z,5.90
2023-02-01T06:47:09.161Z,5.55
2023-02-01T06:52:11.197Z,5.47
2023-02-01T06:57:13.110Z,5.93
2023-02-01T07:02:14.933Z,6.32
2023-02-01T07:07:16.834Z,5.70
2023-02-01T07:12:20.366Z,5.72
2023-02-01T07:17:22.152Z,6.07
2023-02-01T07:22:23.983Z,6.30
2023-02-01T07:27:26.737Z,5.10
2023-02-01T07:32:29.039Z,6.20
2023-02-01T07:37:31.796Z,6.15
2023-02-01T07:42:33.587Z,6.57
2023-02-01T07:47:35.364Z,6.32
2023-02-01T07:52:37.217Z,5.85
2023-02-01T07:57:39.107Z,6.28
2023-02-01T08:02:40.883Z,6.00
2023-02-01T08:07:42.654Z,6.13
2023-02-01T08:12:48.705Z,6.20
2023-02-01T08:17:51.885Z,5.70
2023-02-01T08:22:54.742Z,6.03
2023-02-01T08:27:56.715Z,6.15
2023-02-01T08:32:59.213Z,5.15
2023-02-01T08:38:00.992Z,5.72
2023-02-01T08:43:02.881Z,5.53
2023-02-01T08:48:04.873Z,4.88
2023-02-01T08:53:06.678Z,4.97
2023-02-01T08:58:08.478Z,4.32
2023-02-01T09:03:11.936Z,4.10
2023-02-01T09:08:15.937Z,4.63
2023-02-01T09:13:17.853Z,5.47
2023-02-01T09:18:19.680Z,4.65
2023-02-01T09:23:21.540Z,5.22
2023-02-01T09:28:23.382Z,5.63
2023-02-01T09:33:27.593Z,4.72
2023-02-01T09:38:30.497Z,6.28
2023-02-01T09:43:43.296Z,5.30
2023-02-01T09:48:47.670Z,6.22
2023-02-01T09:54:01.149Z,7.03
2023-02-01T09:59:25.747Z,5.63
2023-02-01T10:04:27.714Z,5.35
2023-02-01T10:09:51.336Z,5.07
2023-02-01T10:15:11.322Z,5.43
2023-02-01T10:20:27.420Z,5.88
2023-02-01T10:25:53.379Z,4.97
2023-02-01T10:30:59.535Z,5.05
2023-02-01T10:36:18.169Z,4.38
2023-02-01T10:41:22.958Z,5.30
2023-02-01T10:46:25.353Z,4.88
2023-02-01T10:51:46.679Z,5.28
2023-02-01T10:56:50.922Z,6.00
2023-02-01T11:02:00.887Z,4.57
2023-02-01T11:07:08.695Z,5.00
2023-02-01T11:12:35.912Z,4.65
2023-02-01T11:17:43.269Z,5.25
2023-02-01T11:22:57.058Z,5.00
2023-02-01T11:27:58.938Z,5.20
2023-02-01T11:33:04.064Z,4.95
2023-02-01T11:38:22.580Z,5.90
2023-02-01T11:43:29.722Z,5.25
2023-02-01T11:48:34.215Z,5.45
2023-02-01T11:53:52.159Z,5.10
2023-02-01T11:59:24.168Z,5.55
2023-02-01T12:04:32.069Z,4.85
2023-02-01T12:09:52.591Z,5.30
2023-02-01T12:15:42.497Z,6.03
2023-02-01T12:21:00.494Z,5.35
2023-02-01T12:26:18.645Z,5.13
2023-02-01T12:31:30.537Z,5.45
2023-02-01T12:36:38.480Z,5.55
2023-02-01T12:42:04.572Z,5.30
2023-02-01T12:47:19.531Z,5.80
2023-02-01T12:52:28.772Z,6.00
2023-02-01T12:57:41.554Z,5.50
2023-02-01T13:03:12.607Z,5.57
2023-02-01T13:08:44.775Z,5.78
2023-02-01T13:13:57.074Z,6.57
2023-02-01T13:19:07.693Z,6.28
2023-02-01T13:24:38.290Z,6.82
2023-02-01T13:29:47.767Z,6.35
2023-02-01T13:35:37.665Z,6.60
2023-02-01T13:40:48.786Z,7.20
2023-02-01T13:45:55.480Z,7.22
2023-02-01T13:51:00.052Z,7.00
2023-02-01T13:56:03.467Z,7.05
2023-02-01T14:01:23.764Z,6.72
2023-02-01T14:06:28.886Z,7.35
2023-02-01T14:11:41.352Z,6.90
2023-02-01T14:17:09.342Z,6.95
2023-02-01T14:22:26.988Z,6.78
2023-02-01T14:27:35.829Z,7.28
2023-02-01T14:32:47.778Z,6.88
2023-02-01T14:37:53.975Z,6.85
2023-02-01T14:42:56.669Z,6.47
2023-02-01T14:48:07.657Z,5.90
2023-02-01T14:53:09.634Z,6.07
2023-02-01T14:58:53.528Z,6.85
2023-02-01T15:04:01.495Z,6.90
2023-02-01T15:09:14.751Z,6.53
2023-02-01T15:14:16.613Z,6.55
2023-02-01T15:19:18.409Z,6.45
2023-02-01T15:24:22.568Z,6.47
2023-02-01T15:29:30.439Z,6.95
2023-02-01T15:34:50.193Z,6.15
2023-02-01T15:40:25.109Z,6.53
2023-02-01T15:45:33.803Z,6.97
2023-02-01T15:50:40.851Z,6.30
2023-02-01T15:55:43.884Z,6.35
2023-02-01T16:00:48.726Z,8.07
2023-02-01T16:05:59.757Z,6.10
2023-02-01T16:11:21.692Z,6.13
2023-02-01T16:16:23.829Z,6.40
2023-02-01T16:21:25.789Z,6.20
2023-02-01T16:26:27.578Z,6.38
2023-02-01T16:31:31.630Z,6.30
2023-02-01T16:36:34.890Z,6.28
2023-02-01T16:41:36.858Z,5.20
2023-02-01T16:46:45.438Z,5.90
2023-02-01T16:51:50.974Z,4.50
2023-02-01T16:56:52.823Z,3.90
2023-02-01T17:01:54.637Z,4.80
2023-02-01T17:06:56.469Z,1.63
2023-02-01T17:11:58.267Z,0.93
2023-02-01T17:17:00.732Z,1.10
2023-02-01T17:22:02.638Z,0.90
2023-02-01T17:27:04.640Z,1.00
2023-02-01T17:32:06.845Z,0.90
2023-02-01T17:37:23.689Z,1.10
2023-02-01T17:42:27.976Z,0.90
2023-02-01T17:47:29.787Z,1.10
2023-02-01T17:52:31.616Z,1.50
2023-02-01T17:57:33.431Z,1.20
2023-02-01T18:02:35.285Z,1.40
2023-02-01T18:07:37.115Z,1.75
2023-02-01T18:12:39.487Z,1.63
2023-02-01T18:17:41.289Z,1.55
2023-02-01T18:22:44.445Z,1.63
2023-02-01T18:27:47.386Z,2.60
2023-02-01T18:32:49.756Z,2.90
2023-02-01T18:37:52.409Z,2.47
2023-02-01T18:42:54.620Z,3.05
2023-02-01T18:47:57.811Z,2.42
2023-02-01T18:53:01.283Z,3.20
2023-02-01T18:58:04.781Z,3.05
2023-02-01T19:03:06.668Z,3.33
2023-02-01T19:08:09.041Z,3.67
2023-02-01T19:13:15.263Z,4.20
2023-02-01T19:18:20.266Z,3.50
2023-02-01T19:23:22.257Z,2.92
2023-02-01T19:28:24.144Z,3.15
2023-02-01T19:33:26.027Z,3.70
2023-02-01T19:38:28.025Z,4.53
2023-02-01T19:43:29.871Z,4.80
2023-02-01T19:48:31.895Z,3.92
2023-02-01T19:53:33.760Z,4.20
2023-02-01T19:58:35.741Z,3.97
2023-02-01T20:03:36.658Z,5.75
2023-02-01T20:08:38.482Z,5.10
2023-02-01T20:13:40.308Z,4.55
2023-02-01T20:18:42.418Z,5.65
2023-02-01T20:23:47.650Z,4.97
2023-02-01T20:28:50.756Z,5.35
2023-02-01T20:33:52.892Z,4.85
2023-02-01T20:38:55.538Z,5.80
2023-02-01T20:43:57.414Z,5.65
2023-02-01T20:48:59.189Z,4.75
2023-02-01T20:54:01.005Z,4.70
2023-02-01T20:59:10.838Z,4.38
2023-02-01T21:04:12.663Z,3.85
2023-02-01T21:09:14.836Z,4.10
2023-02-01T21:14:16.881Z,4.18
2023-02-01T21:19:19.481Z,3.95
2023-02-01T21:24:21.378Z,4.90
2023-02-01T21:29:23.189Z,3.92
2023-02-01T21:34:25.400Z,3.85
2023-02-01T21:39:28.995Z,4.65
2023-02-01T21:44:30.886Z,3.97
2023-02-01T21:49:32.765Z,4.03
2023-02-01T21:54:34.766Z,5.18
2023-02-01T21:59:36.773Z,3.88
2023-02-01T22:04:38.573Z,4.05
2023-02-01T22:09:40.786Z,4.10
2023-02-01T22:14:44.856Z,4.20
2023-02-01T22:19:46.630Z,3.60
2023-02-01T22:24:48.532Z,3.60
2023-02-01T22:29:50.301Z,4.22
2023-02-01T22:34:52.093Z,3.63
2023-02-01T22:39:55.370Z,4.00
2023-02-01T22:44:58.239Z,3.10
2023-02-01T22:50:00.100Z,3.22
2023-02-01T22:55:01.912Z,3.20
2023-02-01T23:00:05.310Z,2.53
2023-02-01T23:05:07.446Z,2.83
2023-02-01T23:10:10.079Z,3.03
2023-02-01T23:15:12.854Z,2.83
2023-02-01T23:20:18.240Z,3.13
2023-02-01T23:25:20.240Z,3.13
2023-02-01T23:30:22.350Z,3.92
2023-02-01T23:35:24.460Z,3.55
2023-02-01T23:40:26.518Z,3.78
2023-02-01T23:45:28.556Z,4.07
2023-02-01T23:50:30.404Z,3.88
2023-02-01T23:55:32.187Z,3.97
